sensor_id;sensor_type;location;lat;lon;timestamp;temperature;humidity
47660;DHT22;33403;43.608;1.458;2023-07-31T00:02:01;21.30;99.90
47660;DHT22;33403;43.608;1.458;2023-07-31T00:04:27;21.30;99.90
47660;DHT22;33403;43.608;1.458;2023-07-31T00:06:52;21.30;99.90
47660;DHT22;33403;43.608;1.458;2023-07-31T00:09:18;21.30;99.90
47660;DHT22;33403;43.608;1.458;2023-07-31T00:11:43;21.30;99.90
47660;DHT22;33403;43.608;1.458;2023-07-31T00:14:09;21.30;99.90
47660;DHT22;33403;43.608;1.458;2023-07-31T00:16:35;21.30;99.90
47660;DHT22;33403;43.608;1.458;2023-07-31T00:19:00;21.20;99.90
47660;DHT22;33403;43.608;1.458;2023-07-31T00:21:26;21.20;99.90
47660;DHT22;33403;43.608;1.458;2023-07-31T00:23:52;21.20;99.90
47660;DHT22;33403;43.608;1.458;2023-07-31T00:26:17;21.20;99.90
47660;DHT22;33403;43.608;1.458;2023-07-31T00:28:43;21.20;99.90
47660;DHT22;33403;43.608;1.458;2023-07-31T00:31:09;21.20;99.90
47660;DHT22;33403;43.608;1.458;2023-07-31T00:33:35;21.10;99.90
47660;DHT22;33403;43.608;1.458;2023-07-31T00:36:01;21.10;99.90
47660;DHT22;33403;43.608;1.458;2023-07-31T00:38:27;21.00;99.90
47660;DHT22;33403;43.608;1.458;2023-07-31T00:40:52;21.00;99.90
47660;DHT22;33403;43.608;1.458;2023-07-31T00:43:18;21.00;99.90
47660;DHT22;33403;43.608;1.458;2023-07-31T00:45:44;20.90;99.90
47660;DHT22;33403;43.608;1.458;2023-07-31T00:48:09;20.90;99.90
47660;DHT22;33403;43.608;1.458;2023-07-31T00:50:35;20.90;99.90
47660;DHT22;33403;43.608;1.458;2023-07-31T00:53:01;20.90;99.90
47660;DHT22;33403;43.608;1.458;2023-07-31T00:55:27;20.90;99.90
47660;DHT22;33403;43.608;1.458;2023-07-31T00:57:53;20.90;99.90
47660;DHT22;33403;43.608;1.458;2023-07-31T01:00:21;20.80;99.90
47660;DHT22;33403;43.608;1.458;2023-07-31T01:02:50;20.80;99.90
47660;DHT22;33403;43.608;1.458;2023-07-31T01:05:16;20.90;99.90
47660;DHT22;33403;43.608;1.458;2023-07-31T01:10:20;20.80;99.90
47660;DHT22;33403;43.608;1.458;2023-07-31T01:12:48;20.80;99.90
47660;DHT22;33403;43.608;1.458;2023-07-31T01:15:14;20.80;99.90
47660;DHT22;33403;43.608;1.458;2023-07-31T01:17:43;20.70;99.90
47660;DHT22;33403;43.608;1.458;2023-07-31T01:20:21;20.80;99.90
47660;DHT22;33403;43.608;1.458;2023-07-31T01:23:09;20.80;99.90
47660;DHT22;33403;43.608;1.458;2023-07-31T01:28:19;20.70;99.90
47660;DHT22;33403;43.608;1.458;2023-07-31T01:30:48;20.70;99.90
47660;DHT22;33403;43.608;1.458;2023-07-31T01:33:16;20.70;99.90
47660;DHT22;33403;43.608;1.458;2023-07-31T01:35:44;20.70;99.90
47660;DHT22;33403;43.608;1.458;2023-07-31T01:38:10;20.70;99.90
47660;DHT22;33403;43.608;1.458;2023-07-31T01:40:36;20.60;99.90
47660;DHT22;33403;43.608;1.458;2023-07-31T01:43:02;20.60;99.90
47660;DHT22;33403;43.608;1.458;2023-07-31T01:45:27;20.60;99.90
47660;DHT22;33403;43.608;1.458;2023-07-31T01:47:53;20.60;99.90
47660;DHT22;33403;43.608;1.458;2023-07-31T01:50:18;20.60;99.90
47660;DHT22;33403;43.608;1.458;2023-07-31T01:52:44;20.60;99.90
47660;DHT22;33403;43.608;1.458;2023-07-31T01:55:10;20.50;99.90
47660;DHT22;33403;43.608;1.458;2023-07-31T01:57:37;20.50;99.90
47660;DHT22;33403;43.608;1.458;2023-07-31T02:00:03;20.50;99.90
47660;DHT22;33403;43.608;1.458;2023-07-31T02:02:29;20.50;99.90
47660;DHT22;33403;43.608;1.458;2023-07-31T02:04:55;20.50;99.90
47660;DHT22;33403;43.608;1.458;2023-07-31T02:07:20;20.50;99.90
47660;DHT22;33403;43.608;1.458;2023-07-31T02:09:46;20.40;99.90
47660;DHT22;33403;43.608;1.458;2023-07-31T02:12:13;20.40;99.90
47660;DHT22;33403;43.608;1.458;2023-07-31T02:14:40;20.40;99.90
47660;DHT22;33403;43.608;1.458;2023-07-31T02:17:06;20.40;99.90
47660;DHT22;33403;43.608;1.458;2023-07-31T02:19:32;20.30;99.90
47660;DHT22;33403;43.608;1.458;2023-07-31T02:21:57;20.30;99.90
47660;DHT22;33403;43.608;1.458;2023-07-31T02:24:24;20.30;99.90
47660;DHT22;33403;43.608;1.458;2023-07-31T02:26:49;20.30;99.90
47660;DHT22;33403;43.608;1.458;2023-07-31T02:29:15;20.30;99.90
47660;DHT22;33403;43.608;1.458;2023-07-31T02:31:41;20.20;99.90
47660;DHT22;33403;43.608;1.458;2023-07-31T02:34:06;20.30;99.90
47660;DHT22;33403;43.608;1.458;2023-07-31T02:36:32;20.20;99.90
47660;DHT22;33403;43.608;1.458;2023-07-31T02:38:58;20.20;99.90
47660;DHT22;33403;43.608;1.458;2023-07-31T02:41:23;20.20;99.90
47660;DHT22;33403;43.608;1.458;2023-07-31T02:43:49;20.20;99.90
47660;DHT22;33403;43.608;1.458;2023-07-31T02:46:15;20.20;99.90
47660;DHT22;33403;43.608;1.458;2023-07-31T02:48:40;20.20;99.90
47660;DHT22;33403;43.608;1.458;2023-07-31T02:51:06;20.10;99.90
47660;DHT22;33403;43.608;1.458;2023-07-31T02:53:31;20.10;99.90
47660;DHT22;33403;43.608;1.458;2023-07-31T02:55:57;20.10;99.90
47660;DHT22;33403;43.608;1.458;2023-07-31T02:58:23;20.00;99.90
47660;DHT22;33403;43.608;1.458;2023-07-31T03:00:48;20.00;99.90
47660;DHT22;33403;43.608;1.458;2023-07-31T03:03:14;20.00;99.90
47660;DHT22;33403;43.608;1.458;2023-07-31T03:05:40;20.00;99.90
47660;DHT22;33403;43.608;1.458;2023-07-31T03:08:05;20.00;99.90
47660;DHT22;33403;43.608;1.458;2023-07-31T03:10:31;20.00;99.90
47660;DHT22;33403;43.608;1.458;2023-07-31T03:12:57;19.90;99.90
47660;DHT22;33403;43.608;1.458;2023-07-31T03:15:22;19.90;99.90
47660;DHT22;33403;43.608;1.458;2023-07-31T03:17:48;19.90;99.90
47660;DHT22;33403;43.608;1.458;2023-07-31T03:20:14;19.90;99.90
47660;DHT22;33403;43.608;1.458;2023-07-31T03:22:39;19.90;99.90
47660;DHT22;33403;43.608;1.458;2023-07-31T03:25:05;19.90;99.90
47660;DHT22;33403;43.608;1.458;2023-07-31T03:27:31;19.80;99.90
47660;DHT22;33403;43.608;1.458;2023-07-31T03:29:57;19.90;99.90
47660;DHT22;33403;43.608;1.458;2023-07-31T03:32:23;19.90;99.90
47660;DHT22;33403;43.608;1.458;2023-07-31T03:34:49;19.90;99.90
47660;DHT22;33403;43.608;1.458;2023-07-31T03:37:15;19.80;99.90
47660;DHT22;33403;43.608;1.458;2023-07-31T03:39:40;19.80;99.90
47660;DHT22;33403;43.608;1.458;2023-07-31T03:42:06;19.80;99.90
47660;DHT22;33403;43.608;1.458;2023-07-31T03:44:32;19.80;99.90
47660;DHT22;33403;43.608;1.458;2023-07-31T03:46:57;19.80;99.90
47660;DHT22;33403;43.608;1.458;2023-07-31T03:49:23;19.80;99.90
47660;DHT22;33403;43.608;1.458;2023-07-31T03:51:50;19.80;99.90
47660;DHT22;33403;43.608;1.458;2023-07-31T03:54:15;19.70;99.90
47660;DHT22;33403;43.608;1.458;2023-07-31T03:56:41;19.70;99.90
47660;DHT22;33403;43.608;1.458;2023-07-31T03:59:07;19.70;99.90
47660;DHT22;33403;43.608;1.458;2023-07-31T04:01:32;19.60;99.90
47660;DHT22;33403;43.608;1.458;2023-07-31T04:03:58;19.60;99.90
47660;DHT22;33403;43.608;1.458;2023-07-31T04:06:24;19.60;99.90
47660;DHT22;33403;43.608;1.458;2023-07-31T04:08:49;19.60;99.90
47660;DHT22;33403;43.608;1.458;2023-07-31T04:11:15;19.60;99.90
47660;DHT22;33403;43.608;1.458;2023-07-31T04:13:41;19.60;99.90
47660;DHT22;33403;43.608;1.458;2023-07-31T04:16:06;19.60;99.90
47660;DHT22;33403;43.608;1.458;2023-07-31T04:18:32;19.60;99.90
47660;DHT22;33403;43.608;1.458;2023-07-31T04:20:58;19.50;99.90
47660;DHT22;33403;43.608;1.458;2023-07-31T04:23:25;19.60;99.90
47660;DHT22;33403;43.608;1.458;2023-07-31T04:25:51;19.50;99.90
47660;DHT22;33403;43.608;1.458;2023-07-31T04:28:16;19.50;99.90
47660;DHT22;33403;43.608;1.458;2023-07-31T04:30:42;19.40;99.90
47660;DHT22;33403;43.608;1.458;2023-07-31T04:33:08;19.50;99.90
47660;DHT22;33403;43.608;1.458;2023-07-31T04:35:33;19.50;99.90
47660;DHT22;33403;43.608;1.458;2023-07-31T04:37:59;19.40;99.90
47660;DHT22;33403;43.608;1.458;2023-07-31T04:40:25;19.40;99.90
47660;DHT22;33403;43.608;1.458;2023-07-31T04:42:50;19.40;99.90
47660;DHT22;33403;43.608;1.458;2023-07-31T04:45:16;19.40;99.90
47660;DHT22;33403;43.608;1.458;2023-07-31T04:47:42;19.40;99.90
47660;DHT22;33403;43.608;1.458;2023-07-31T04:50:08;19.40;99.90
47660;DHT22;33403;43.608;1.458;2023-07-31T04:52:34;19.40;99.90
47660;DHT22;33403;43.608;1.458;2023-07-31T04:54:59;19.40;99.90
47660;DHT22;33403;43.608;1.458;2023-07-31T04:57:25;19.30;99.90
47660;DHT22;33403;43.608;1.458;2023-07-31T04:59:50;19.30;99.90
47660;DHT22;33403;43.608;1.458;2023-07-31T05:02:16;19.30;99.90
47660;DHT22;33403;43.608;1.458;2023-07-31T05:04:42;19.30;99.90
47660;DHT22;33403;43.608;1.458;2023-07-31T05:07:07;19.30;99.90
47660;DHT22;33403;43.608;1.458;2023-07-31T05:09:33;19.30;99.90
47660;DHT22;33403;43.608;1.458;2023-07-31T05:11:59;19.30;99.90
47660;DHT22;33403;43.608;1.458;2023-07-31T05:14:25;19.30;99.90
47660;DHT22;33403;43.608;1.458;2023-07-31T05:16:51;19.30;99.90
47660;DHT22;33403;43.608;1.458;2023-07-31T05:19:17;19.30;99.90
47660;DHT22;33403;43.608;1.458;2023-07-31T05:21:42;19.30;99.90
47660;DHT22;33403;43.608;1.458;2023-07-31T05:24:08;19.30;99.90
47660;DHT22;33403;43.608;1.458;2023-07-31T05:26:34;19.30;99.90
47660;DHT22;33403;43.608;1.458;2023-07-31T05:28:59;19.30;99.90
47660;DHT22;33403;43.608;1.458;2023-07-31T05:31:25;19.30;99.90
47660;DHT22;33403;43.608;1.458;2023-07-31T05:33:51;19.30;99.90
47660;DHT22;33403;43.608;1.458;2023-07-31T05:36:17;19.20;99.90
47660;DHT22;33403;43.608;1.458;2023-07-31T05:38:42;19.20;99.90
47660;DHT22;33403;43.608;1.458;2023-07-31T05:41:12;19.30;99.90
47660;DHT22;33403;43.608;1.458;2023-07-31T05:43:38;19.30;99.90
47660;DHT22;33403;43.608;1.458;2023-07-31T05:46:04;19.30;99.90
47660;DHT22;33403;43.608;1.458;2023-07-31T05:48:29;19.30;99.90
47660;DHT22;33403;43.608;1.458;2023-07-31T05:50:55;19.30;99.90
47660;DHT22;33403;43.608;1.458;2023-07-31T05:53:20;19.30;99.90
47660;DHT22;33403;43.608;1.458;2023-07-31T05:55:46;19.30;99.90
47660;DHT22;33403;43.608;1.458;2023-07-31T05:58:12;19.30;99.90
47660;DHT22;33403;43.608;1.458;2023-07-31T06:00:37;19.30;99.90
47660;DHT22;33403;43.608;1.458;2023-07-31T06:03:03;19.30;99.90
47660;DHT22;33403;43.608;1.458;2023-07-31T06:05:29;19.30;99.90
47660;DHT22;33403;43.608;1.458;2023-07-31T06:07:56;19.30;99.90
47660;DHT22;33403;43.608;1.458;2023-07-31T06:10:22;19.30;99.90
47660;DHT22;33403;43.608;1.458;2023-07-31T06:12:48;19.30;99.90
47660;DHT22;33403;43.608;1.458;2023-07-31T06:15:13;19.40;99.90
47660;DHT22;33403;43.608;1.458;2023-07-31T06:17:39;19.40;99.90
47660;DHT22;33403;43.608;1.458;2023-07-31T06:20:06;19.50;99.90
47660;DHT22;33403;43.608;1.458;2023-07-31T06:22:32;19.50;99.90
47660;DHT22;33403;43.608;1.458;2023-07-31T06:24:58;19.50;99.90
47660;DHT22;33403;43.608;1.458;2023-07-31T06:27:24;19.50;99.90
47660;DHT22;33403;43.608;1.458;2023-07-31T06:29:49;19.50;99.90
47660;DHT22;33403;43.608;1.458;2023-07-31T06:32:15;19.50;99.90
47660;DHT22;33403;43.608;1.458;2023-07-31T06:34:41;19.60;99.90
47660;DHT22;33403;43.608;1.458;2023-07-31T06:37:06;19.60;99.90
47660;DHT22;33403;43.608;1.458;2023-07-31T06:39:32;19.60;99.90
47660;DHT22;33403;43.608;1.458;2023-07-31T06:41:58;19.60;99.90
47660;DHT22;33403;43.608;1.458;2023-07-31T06:44:23;19.60;99.90
47660;DHT22;33403;43.608;1.458;2023-07-31T06:46:49;19.60;99.90
47660;DHT22;33403;43.608;1.458;2023-07-31T06:49:14;19.60;99.90
47660;DHT22;33403;43.608;1.458;2023-07-31T06:51:43;19.70;99.90
47660;DHT22;33403;43.608;1.458;2023-07-31T06:54:09;19.70;99.90
47660;DHT22;33403;43.608;1.458;2023-07-31T06:56:35;19.70;99.90
47660;DHT22;33403;43.608;1.458;2023-07-31T06:59:01;19.60;99.90
47660;DHT22;33403;43.608;1.458;2023-07-31T07:01:26;19.70;99.90
47660;DHT22;33403;43.608;1.458;2023-07-31T07:03:54;19.80;99.90
47660;DHT22;33403;43.608;1.458;2023-07-31T07:06:19;19.80;99.90
47660;DHT22;33403;43.608;1.458;2023-07-31T07:08:45;19.80;99.90
47660;DHT22;33403;43.608;1.458;2023-07-31T07:11:11;19.90;99.90
47660;DHT22;33403;43.608;1.458;2023-07-31T07:13:37;19.90;99.90
47660;DHT22;33403;43.608;1.458;2023-07-31T07:16:02;20.00;99.90
47660;DHT22;33403;43.608;1.458;2023-07-31T07:18:28;20.00;99.90
47660;DHT22;33403;43.608;1.458;2023-07-31T07:20:54;20.00;99.90
47660;DHT22;33403;43.608;1.458;2023-07-31T07:23:20;20.00;99.90
47660;DHT22;33403;43.608;1.458;2023-07-31T07:25:47;20.10;99.90
47660;DHT22;33403;43.608;1.458;2023-07-31T07:28:13;20.10;99.90
47660;DHT22;33403;43.608;1.458;2023-07-31T07:30:38;20.10;99.90
47660;DHT22;33403;43.608;1.458;2023-07-31T07:33:04;20.10;99.90
47660;DHT22;33403;43.608;1.458;2023-07-31T07:35:33;20.20;99.90
47660;DHT22;33403;43.608;1.458;2023-07-31T07:37:58;20.20;99.90
47660;DHT22;33403;43.608;1.458;2023-07-31T07:40:24;20.30;99.90
47660;DHT22;33403;43.608;1.458;2023-07-31T07:42:50;20.30;99.90
47660;DHT22;33403;43.608;1.458;2023-07-31T07:45:16;20.30;99.90
47660;DHT22;33403;43.608;1.458;2023-07-31T07:47:41;20.40;99.90
47660;DHT22;33403;43.608;1.458;2023-07-31T07:50:08;20.40;99.90
47660;DHT22;33403;43.608;1.458;2023-07-31T07:52:33;20.50;99.90
47660;DHT22;33403;43.608;1.458;2023-07-31T07:54:59;20.50;99.90
47660;DHT22;33403;43.608;1.458;2023-07-31T07:57:26;20.50;99.90
47660;DHT22;33403;43.608;1.458;2023-07-31T07:59:51;20.60;99.90
47660;DHT22;33403;43.608;1.458;2023-07-31T08:02:17;20.60;99.90
47660;DHT22;33403;43.608;1.458;2023-07-31T08:04:42;20.60;99.90
47660;DHT22;33403;43.608;1.458;2023-07-31T08:07:11;20.60;99.90
47660;DHT22;33403;43.608;1.458;2023-07-31T08:09:37;20.70;99.90
47660;DHT22;33403;43.608;1.458;2023-07-31T08:12:03;20.70;99.90
47660;DHT22;33403;43.608;1.458;2023-07-31T08:14:29;20.80;99.90
47660;DHT22;33403;43.608;1.458;2023-07-31T08:16:55;20.90;99.90
47660;DHT22;33403;43.608;1.458;2023-07-31T08:19:21;20.90;99.90
47660;DHT22;33403;43.608;1.458;2023-07-31T08:21:46;21.00;99.90
47660;DHT22;33403;43.608;1.458;2023-07-31T08:24:12;21.10;99.90
47660;DHT22;33403;43.608;1.458;2023-07-31T08:26:38;21.10;99.90
47660;DHT22;33403;43.608;1.458;2023-07-31T08:29:04;21.20;99.90
47660;DHT22;33403;43.608;1.458;2023-07-31T08:31:29;21.30;99.90
47660;DHT22;33403;43.608;1.458;2023-07-31T08:33:56;21.40;99.90
47660;DHT22;33403;43.608;1.458;2023-07-31T08:36:21;21.60;99.90
47660;DHT22;33403;43.608;1.458;2023-07-31T08:38:47;21.60;99.90
47660;DHT22;33403;43.608;1.458;2023-07-31T08:41:13;21.70;99.90
47660;DHT22;33403;43.608;1.458;2023-07-31T08:43:39;21.70;99.90
47660;DHT22;33403;43.608;1.458;2023-07-31T08:46:05;21.80;99.90
47660;DHT22;33403;43.608;1.458;2023-07-31T08:48:31;21.90;99.90
47660;DHT22;33403;43.608;1.458;2023-07-31T08:50:58;22.00;99.90
47660;DHT22;33403;43.608;1.458;2023-07-31T08:53:24;22.10;99.90
47660;DHT22;33403;43.608;1.458;2023-07-31T08:55:52;22.20;99.90
47660;DHT22;33403;43.608;1.458;2023-07-31T08:58:19;22.30;99.90
47660;DHT22;33403;43.608;1.458;2023-07-31T09:00:47;22.40;99.90
47660;DHT22;33403;43.608;1.458;2023-07-31T09:03:17;22.50;99.60
47660;DHT22;33403;43.608;1.458;2023-07-31T09:05:44;22.50;98.70
47660;DHT22;33403;43.608;1.458;2023-07-31T09:08:12;22.60;99.90
47660;DHT22;33403;43.608;1.458;2023-07-31T09:10:44;22.70;99.90
47660;DHT22;33403;43.608;1.458;2023-07-31T09:13:13;22.70;99.30
47660;DHT22;33403;43.608;1.458;2023-07-31T09:15:40;22.80;99.10
47660;DHT22;33403;43.608;1.458;2023-07-31T09:18:08;22.80;99.90
47660;DHT22;33403;43.608;1.458;2023-07-31T09:20:34;22.90;99.60
47660;DHT22;33403;43.608;1.458;2023-07-31T09:23:12;23.00;99.90
47660;DHT22;33403;43.608;1.458;2023-07-31T09:25:39;23.10;98.00
47660;DHT22;33403;43.608;1.458;2023-07-31T09:28:07;23.10;97.70
47660;DHT22;33403;43.608;1.458;2023-07-31T09:30:53;23.20;99.20
47660;DHT22;33403;43.608;1.458;2023-07-31T09:33:19;23.20;98.00
47660;DHT22;33403;43.608;1.458;2023-07-31T09:35:46;23.20;98.70
47660;DHT22;33403;43.608;1.458;2023-07-31T09:38:14;23.30;98.90
47660;DHT22;33403;43.608;1.458;2023-07-31T09:40:43;23.40;99.40
47660;DHT22;33403;43.608;1.458;2023-07-31T09:43:10;23.50;98.50
47660;DHT22;33403;43.608;1.458;2023-07-31T09:45:41;23.50;97.70
47660;DHT22;33403;43.608;1.458;2023-07-31T09:48:08;23.50;98.20
47660;DHT22;33403;43.608;1.458;2023-07-31T09:50:37;23.60;97.80
47660;DHT22;33403;43.608;1.458;2023-07-31T09:53:03;23.60;98.40
47660;DHT22;33403;43.608;1.458;2023-07-31T09:55:29;23.70;98.40
47660;DHT22;33403;43.608;1.458;2023-07-31T09:57:57;23.70;98.60
47660;DHT22;33403;43.608;1.458;2023-07-31T10:00:23;23.80;98.20
47660;DHT22;33403;43.608;1.458;2023-07-31T10:02:53;23.80;99.00
47660;DHT22;33403;43.608;1.458;2023-07-31T10:05:19;23.80;98.80
47660;DHT22;33403;43.608;1.458;2023-07-31T10:07:52;23.80;98.70
47660;DHT22;33403;43.608;1.458;2023-07-31T10:10:20;23.90;98.40
47660;DHT22;33403;43.608;1.458;2023-07-31T10:12:48;23.90;98.20
47660;DHT22;33403;43.608;1.458;2023-07-31T10:15:15;23.90;97.40
47660;DHT22;33403;43.608;1.458;2023-07-31T10:17:41;23.90;97.40
47660;DHT22;33403;43.608;1.458;2023-07-31T10:20:08;24.00;98.20
47660;DHT22;33403;43.608;1.458;2023-07-31T10:22:34;24.00;98.40
47660;DHT22;33403;43.608;1.458;2023-07-31T10:25:00;24.10;97.70
47660;DHT22;33403;43.608;1.458;2023-07-31T10:27:26;24.10;98.10
47660;DHT22;33403;43.608;1.458;2023-07-31T10:29:54;24.10;98.00
47660;DHT22;33403;43.608;1.458;2023-07-31T10:32:21;24.10;96.40
47660;DHT22;33403;43.608;1.458;2023-07-31T10:34:48;24.20;97.70
47660;DHT22;33403;43.608;1.458;2023-07-31T10:40:06;24.20;96.10
47660;DHT22;33403;43.608;1.458;2023-07-31T10:45:10;24.20;96.70
47660;DHT22;33403;43.608;1.458;2023-07-31T10:47:46;24.30;97.40
47660;DHT22;33403;43.608;1.458;2023-07-31T10:50:22;24.30;94.90
47660;DHT22;33403;43.608;1.458;2023-07-31T10:52:51;24.20;94.70
47660;DHT22;33403;43.608;1.458;2023-07-31T10:55:31;24.20;96.10
47660;DHT22;33403;43.608;1.458;2023-07-31T10:58:11;24.20;95.40
47660;DHT22;33403;43.608;1.458;2023-07-31T11:00:38;24.30;96.70
47660;DHT22;33403;43.608;1.458;2023-07-31T11:03:08;24.30;96.90
47660;DHT22;33403;43.608;1.458;2023-07-31T11:08:19;24.50;96.00
47660;DHT22;33403;43.608;1.458;2023-07-31T11:10:46;24.50;96.50
47660;DHT22;33403;43.608;1.458;2023-07-31T11:13:12;24.50;95.50
47660;DHT22;33403;43.608;1.458;2023-07-31T11:15:38;24.50;93.60
47660;DHT22;33403;43.608;1.458;2023-07-31T11:18:04;24.50;96.30
47660;DHT22;33403;43.608;1.458;2023-07-31T11:20:31;24.60;96.60
47660;DHT22;33403;43.608;1.458;2023-07-31T11:23:00;24.60;96.10
47660;DHT22;33403;43.608;1.458;2023-07-31T11:25:26;24.60;95.90
47660;DHT22;33403;43.608;1.458;2023-07-31T11:27:51;24.70;94.30
47660;DHT22;33403;43.608;1.458;2023-07-31T11:30:19;24.70;94.00
47660;DHT22;33403;43.608;1.458;2023-07-31T11:32:45;24.70;95.40
47660;DHT22;33403;43.608;1.458;2023-07-31T11:35:14;24.80;95.30
47660;DHT22;33403;43.608;1.458;2023-07-31T11:37:41;24.80;94.50
47660;DHT22;33403;43.608;1.458;2023-07-31T11:40:07;24.80;95.10
47660;DHT22;33403;43.608;1.458;2023-07-31T11:42:34;24.80;94.00
47660;DHT22;33403;43.608;1.458;2023-07-31T11:45:07;24.80;93.50
47660;DHT22;33403;43.608;1.458;2023-07-31T11:47:34;24.80;92.00
47660;DHT22;33403;43.608;1.458;2023-07-31T11:50:01;24.90;92.90
47660;DHT22;33403;43.608;1.458;2023-07-31T11:52:30;24.90;92.60
47660;DHT22;33403;43.608;1.458;2023-07-31T11:54:57;24.90;93.20
47660;DHT22;33403;43.608;1.458;2023-07-31T11:57:25;24.90;92.30
47660;DHT22;33403;43.608;1.458;2023-07-31T11:59:51;25.00;93.30
47660;DHT22;33403;43.608;1.458;2023-07-31T12:02:18;24.90;92.60
47660;DHT22;33403;43.608;1.458;2023-07-31T12:04:45;25.00;92.70
47660;DHT22;33403;43.608;1.458;2023-07-31T12:07:10;24.90;92.80
47660;DHT22;33403;43.608;1.458;2023-07-31T12:09:38;24.90;92.70
47660;DHT22;33403;43.608;1.458;2023-07-31T12:12:08;24.90;92.90
47660;DHT22;33403;43.608;1.458;2023-07-31T12:14:34;24.90;93.40
47660;DHT22;33403;43.608;1.458;2023-07-31T12:17:04;24.90;93.50
47660;DHT22;33403;43.608;1.458;2023-07-31T12:19:30;25.00;91.20
47660;DHT22;33403;43.608;1.458;2023-07-31T12:21:57;25.00;90.90
47660;DHT22;33403;43.608;1.458;2023-07-31T12:24:23;25.00;92.50
47660;DHT22;33403;43.608;1.458;2023-07-31T12:26:49;25.10;93.00
47660;DHT22;33403;43.608;1.458;2023-07-31T12:29:15;25.10;92.50
47660;DHT22;33403;43.608;1.458;2023-07-31T12:31:41;25.10;92.00
47660;DHT22;33403;43.608;1.458;2023-07-31T12:34:18;25.20;92.60
47660;DHT22;33403;43.608;1.458;2023-07-31T12:36:44;25.20;91.90
47660;DHT22;33403;43.608;1.458;2023-07-31T12:39:10;25.20;92.30
47660;DHT22;33403;43.608;1.458;2023-07-31T12:41:36;25.20;91.70
47660;DHT22;33403;43.608;1.458;2023-07-31T12:44:02;25.30;91.90
47660;DHT22;33403;43.608;1.458;2023-07-31T12:46:28;25.30;91.20
47660;DHT22;33403;43.608;1.458;2023-07-31T12:48:54;25.30;90.50
47660;DHT22;33403;43.608;1.458;2023-07-31T12:51:20;25.30;91.20
47660;DHT22;33403;43.608;1.458;2023-07-31T12:53:46;25.30;91.20
47660;DHT22;33403;43.608;1.458;2023-07-31T12:56:12;25.30;90.40
47660;DHT22;33403;43.608;1.458;2023-07-31T12:58:37;25.30;89.90
47660;DHT22;33403;43.608;1.458;2023-07-31T13:01:03;25.40;90.40
47660;DHT22;33403;43.608;1.458;2023-07-31T13:03:28;25.40;89.20
47660;DHT22;33403;43.608;1.458;2023-07-31T13:05:54;25.40;90.80
47660;DHT22;33403;43.608;1.458;2023-07-31T13:08:20;25.40;91.90
47660;DHT22;33403;43.608;1.458;2023-07-31T13:10:46;25.40;91.10
47660;DHT22;33403;43.608;1.458;2023-07-31T13:13:12;25.40;90.70
47660;DHT22;33403;43.608;1.458;2023-07-31T13:15:37;25.50;90.00
47660;DHT22;33403;43.608;1.458;2023-07-31T13:18:03;25.50;90.60
47660;DHT22;33403;43.608;1.458;2023-07-31T13:20:29;25.50;91.50
47660;DHT22;33403;43.608;1.458;2023-07-31T13:22:54;25.50;91.20
47660;DHT22;33403;43.608;1.458;2023-07-31T13:25:20;25.50;90.40
47660;DHT22;33403;43.608;1.458;2023-07-31T13:27:46;25.50;90.40
47660;DHT22;33403;43.608;1.458;2023-07-31T13:30:11;25.60;86.60
47660;DHT22;33403;43.608;1.458;2023-07-31T13:32:37;25.60;89.70
47660;DHT22;33403;43.608;1.458;2023-07-31T13:35:06;25.60;87.80
47660;DHT22;33403;43.608;1.458;2023-07-31T13:37:32;25.60;87.90
47660;DHT22;33403;43.608;1.458;2023-07-31T13:39:58;25.60;88.30
47660;DHT22;33403;43.608;1.458;2023-07-31T13:42:23;25.70;86.70
47660;DHT22;33403;43.608;1.458;2023-07-31T13:44:49;25.70;88.90
47660;DHT22;33403;43.608;1.458;2023-07-31T13:47:15;25.80;86.60
47660;DHT22;33403;43.608;1.458;2023-07-31T13:49:40;25.80;88.20
47660;DHT22;33403;43.608;1.458;2023-07-31T13:52:07;25.70;87.90
47660;DHT22;33403;43.608;1.458;2023-07-31T13:54:32;25.70;82.70
47660;DHT22;33403;43.608;1.458;2023-07-31T13:56:58;25.70;85.90
47660;DHT22;33403;43.608;1.458;2023-07-31T13:59:24;25.70;86.80
47660;DHT22;33403;43.608;1.458;2023-07-31T14:01:50;25.90;81.00
47660;DHT22;33403;43.608;1.458;2023-07-31T14:04:16;25.70;85.90
47660;DHT22;33403;43.608;1.458;2023-07-31T14:06:43;25.80;79.20
47660;DHT22;33403;43.608;1.458;2023-07-31T14:09:08;25.80;81.30
47660;DHT22;33403;43.608;1.458;2023-07-31T14:11:34;25.80;80.40
47660;DHT22;33403;43.608;1.458;2023-07-31T14:14:00;25.90;78.90
47660;DHT22;33403;43.608;1.458;2023-07-31T14:16:27;25.80;80.80
47660;DHT22;33403;43.608;1.458;2023-07-31T14:18:53;25.70;79.00
47660;DHT22;33403;43.608;1.458;2023-07-31T14:21:19;25.80;81.60
47660;DHT22;33403;43.608;1.458;2023-07-31T14:23:45;25.80;79.00
47660;DHT22;33403;43.608;1.458;2023-07-31T14:26:11;25.80;79.40
47660;DHT22;33403;43.608;1.458;2023-07-31T14:28:37;25.80;80.30
47660;DHT22;33403;43.608;1.458;2023-07-31T14:31:03;25.70;82.50
47660;DHT22;33403;43.608;1.458;2023-07-31T14:33:28;25.80;81.20
47660;DHT22;33403;43.608;1.458;2023-07-31T14:35:54;25.80;82.80
47660;DHT22;33403;43.608;1.458;2023-07-31T14:38:19;25.80;82.10
47660;DHT22;33403;43.608;1.458;2023-07-31T14:40:46;25.80;80.80
47660;DHT22;33403;43.608;1.458;2023-07-31T14:43:11;25.80;80.10
47660;DHT22;33403;43.608;1.458;2023-07-31T14:45:37;25.90;81.40
47660;DHT22;33403;43.608;1.458;2023-07-31T14:48:03;25.90;79.30
47660;DHT22;33403;43.608;1.458;2023-07-31T14:50:28;25.90;79.20
47660;DHT22;33403;43.608;1.458;2023-07-31T14:52:54;25.90;81.20
47660;DHT22;33403;43.608;1.458;2023-07-31T14:55:20;25.80;82.50
47660;DHT22;33403;43.608;1.458;2023-07-31T14:57:46;25.80;83.90
47660;DHT22;33403;43.608;1.458;2023-07-31T15:00:12;25.90;82.80
47660;DHT22;33403;43.608;1.458;2023-07-31T15:02:38;25.90;83.70
47660;DHT22;33403;43.608;1.458;2023-07-31T15:05:04;25.80;85.10
47660;DHT22;33403;43.608;1.458;2023-07-31T15:07:30;25.80;84.40
47660;DHT22;33403;43.608;1.458;2023-07-31T15:09:56;25.80;83.90
47660;DHT22;33403;43.608;1.458;2023-07-31T15:12:22;25.80;83.40
47660;DHT22;33403;43.608;1.458;2023-07-31T15:14:48;25.90;79.80
47660;DHT22;33403;43.608;1.458;2023-07-31T15:17:14;25.90;81.40
47660;DHT22;33403;43.608;1.458;2023-07-31T15:19:40;25.90;82.80
47660;DHT22;33403;43.608;1.458;2023-07-31T15:22:06;25.90;83.70
47660;DHT22;33403;43.608;1.458;2023-07-31T15:24:31;25.80;81.80
47660;DHT22;33403;43.608;1.458;2023-07-31T15:26:57;25.90;82.30
47660;DHT22;33403;43.608;1.458;2023-07-31T15:29:23;25.90;81.70
47660;DHT22;33403;43.608;1.458;2023-07-31T15:31:49;25.90;80.90
47660;DHT22;33403;43.608;1.458;2023-07-31T15:34:15;25.90;81.70
47660;DHT22;33403;43.608;1.458;2023-07-31T15:36:41;25.90;82.50
47660;DHT22;33403;43.608;1.458;2023-07-31T15:39:07;26.00;79.30